createdAt,value
2017-12-12T00:00:22.328Z,21.07
2017-12-12T00:00:50.455Z,21.03
2017-12-12T00:01:18.657Z,20.9
2017-12-12T00:01:46.742Z,21.05
2017-12-12T00:02:14.727Z,21.05
2017-12-12T00:02:42.895Z,21.01
2017-12-12T00:03:10.956Z,21.05
2017-12-12T00:03:39.145Z,21.03
2017-12-12T00:04:07.084Z,21
2017-12-12T00:04:35.226Z,21.03
2017-12-12T00:05:03.315Z,20.98
2017-12-12T00:05:31.376Z,21
2017-12-12T00:05:59.532Z,21.04
2017-12-12T00:06:27.496Z,20.98
2017-12-12T00:06:55.662Z,20.89
2017-12-12T00:07:23.746Z,20.88
2017-12-12T00:07:51.892Z,20.92
2017-12-12T00:08:20.058Z,20.9
2017-12-12T00:08:48.189Z,20.89
2017-12-12T00:09:16.214Z,20.86
2017-12-12T00:09:44.345Z,20.92
2017-12-12T00:10:12.504Z,21
2017-12-12T00:10:40.438Z,20.9
2017-12-12T00:11:08.586Z,20.86
2017-12-12T00:11:36.734Z,20.86
2017-12-12T00:12:04.872Z,20.88
2017-12-12T00:12:32.851Z,20.82
2017-12-12T00:13:01.024Z,20.9
2017-12-12T00:13:29.166Z,20.73
2017-12-12T00:13:57.343Z,20.88
2017-12-12T00:14:25.486Z,20.89
2017-12-12T00:14:53.553Z,20.88
2017-12-12T00:15:21.807Z,20.89
2017-12-12T00:15:49.956Z,20.85
2017-12-12T00:16:17.981Z,20.82
2017-12-12T00:16:46.019Z,20.8
2017-12-12T00:17:13.837Z,20.82
2017-12-12T00:17:41.766Z,20.83
2017-12-12T00:18:09.955Z,20.74
2017-12-12T00:18:38.017Z,20.75
2017-12-12T00:19:06.270Z,20.83
2017-12-12T00:19:34.224Z,20.85
2017-12-12T00:20:02.354Z,20.86
2017-12-12T00:20:30.248Z,20.77
2017-12-12T00:20:58.324Z,20.88
2017-12-12T00:21:26.397Z,20.82
2017-12-12T00:21:54.592Z,20.83
2017-12-12T00:22:22.764Z,20.82
2017-12-12T00:22:50.820Z,20.77
2017-12-12T00:23:18.876Z,20.86
2017-12-12T00:23:46.928Z,20.85
2017-12-12T00:24:14.936Z,20.73
2017-12-12T00:24:42.947Z,20.74
2017-12-12T00:25:11.003Z,20.75
2017-12-12T00:25:39.049Z,20.73
2017-12-12T00:26:07.212Z,20.74
2017-12-12T00:26:35.246Z,20.67
2017-12-12T00:27:03.348Z,20.59
2017-12-12T00:27:31.475Z,20.59
2017-12-12T00:27:59.800Z,20.6
2017-12-12T00:28:27.985Z,20.64
2017-12-12T00:28:56.047Z,20.55
2017-12-12T00:29:24.215Z,20.59
2017-12-12T00:29:52.209Z,20.58
2017-12-12T00:30:20.409Z,20.67
2017-12-12T00:30:48.378Z,20.59
2017-12-12T00:31:16.320Z,20.67
2017-12-12T00:31:44.470Z,20.66
2017-12-12T00:32:12.388Z,20.6
2017-12-12T00:32:40.484Z,20.64
2017-12-12T00:33:08.596Z,20.53
2017-12-12T00:33:36.751Z,20.64
2017-12-12T00:34:05.016Z,20.59
2017-12-12T00:34:33.044Z,20.64
2017-12-12T00:35:01.073Z,20.6
2017-12-12T00:35:29.198Z,20.59
2017-12-12T00:35:57.338Z,20.73
2017-12-12T00:36:25.477Z,20.64
2017-12-12T00:36:53.529Z,20.64
2017-12-12T00:37:21.608Z,20.59
2017-12-12T00:37:49.541Z,20.66
2017-12-12T00:38:17.729Z,20.58
2017-12-12T00:38:45.704Z,20.59
2017-12-12T00:39:13.765Z,20.55
2017-12-12T00:39:41.923Z,20.52
2017-12-12T00:40:09.998Z,20.46
2017-12-12T00:40:37.840Z,20.42
2017-12-12T00:41:05.907Z,20.46
2017-12-12T00:41:34.054Z,20.42
2017-12-12T00:42:02.126Z,20.42
2017-12-12T00:42:30.293Z,20.33
2017-12-12T00:42:58.444Z,20.44
2017-12-12T00:43:26.547Z,20.42
2017-12-12T00:43:54.668Z,20.39
2017-12-12T00:44:22.783Z,20.3
2017-12-12T00:44:50.822Z,20.32
2017-12-12T00:45:19.094Z,20.26
2017-12-12T00:45:47.270Z,20.32
2017-12-12T00:46:15.233Z,20.29
2017-12-12T00:46:43.385Z,20.33
2017-12-12T00:47:11.574Z,20.34
2017-12-12T00:47:39.603Z,20.32
2017-12-12T00:48:07.717Z,20.29
2017-12-12T00:48:35.841Z,20.32
2017-12-12T00:49:03.949Z,20.22
2017-12-12T00:49:32.024Z,20.29
2017-12-12T00:50:00.071Z,20.22
2017-12-12T00:50:28.228Z,20.26
2017-12-12T00:50:56.144Z,20.18
2017-12-12T00:51:24.323Z,20.12
2017-12-12T00:51:52.469Z,20.12
2017-12-12T00:52:20.604Z,20.15
2017-12-12T00:52:48.709Z,20.11
2017-12-12T00:53:16.668Z,20.04
2017-12-12T00:53:44.492Z,20.04
2017-12-12T00:54:12.629Z,20.07
2017-12-12T00:54:40.685Z,20.04
2017-12-12T00:55:08.667Z,20.02
2017-12-12T00:55:36.698Z,20.04
2017-12-12T00:56:04.745Z,20.07
2017-12-12T00:56:32.781Z,20
2017-12-12T00:57:00.898Z,20.07
2017-12-12T00:57:28.943Z,20.02
2017-12-12T00:57:57.101Z,20
2017-12-12T00:58:25.230Z,20.03
2017-12-12T00:58:53.389Z,20.03
2017-12-12T00:59:21.474Z,20.03
2017-12-12T00:59:49.634Z,20.02
2017-12-12T01:00:17.552Z,20.03
2017-12-12T01:00:45.388Z,19.93
2017-12-12T01:01:13.532Z,19.93
2017-12-12T01:01:41.577Z,19.9
2017-12-12T01:02:09.520Z,19.93
2017-12-12T01:02:37.678Z,19.9
2017-12-12T01:03:05.736Z,19.87
2017-12-12T01:03:33.767Z,19.84
2017-12-12T01:04:01.900Z,19.87
2017-12-12T01:04:30.047Z,19.89
2017-12-12T01:04:58.200Z,19.85
2017-12-12T01:05:26.132Z,19.87
2017-12-12T01:05:54.155Z,19.87
2017-12-12T01:06:22.101Z,19.87
2017-12-12T01:06:50.171Z,19.84
2017-12-12T01:07:18.106Z,19.84
2017-12-12T01:07:46.249Z,19.79
2017-12-12T01:08:14.369Z,19.81
2017-12-12T01:08:42.401Z,19.87
2017-12-12T01:09:10.529Z,19.84
2017-12-12T01:09:38.708Z,19.81
2017-12-12T01:10:06.845Z,19.82
2017-12-12T01:10:35.179Z,19.81
2017-12-12T01:11:03.239Z,19.87
2017-12-12T01:11:31.260Z,19.87
2017-12-12T01:11:59.178Z,19.89
2017-12-12T01:12:27.211Z,19.94
2017-12-12T01:12:55.241Z,19.84
2017-12-12T01:13:23.422Z,19.93
2017-12-12T01:13:51.506Z,19.84
2017-12-12T01:14:19.634Z,19.85
2017-12-12T01:14:47.652Z,19.85
2017-12-12T01:15:15.762Z,19.9
2017-12-12T01:15:43.916Z,19.92
2017-12-12T01:16:11.937Z,19.97
2017-12-12T01:16:39.864Z,19.9
2017-12-12T01:17:07.773Z,19.96
2017-12-12T01:17:35.893Z,19.94
2017-12-12T01:18:04.063Z,19.97
2017-12-12T01:18:32.110Z,19.93
2017-12-12T01:19:00.278Z,19.97
2017-12-12T01:19:28.388Z,19.94
2017-12-12T01:19:56.360Z,19.96
2017-12-12T01:20:24.438Z,19.94
2017-12-12T01:20:52.622Z,19.92
2017-12-12T01:21:20.647Z,19.87
2017-12-12T01:21:48.672Z,19.96
2017-12-12T01:22:16.739Z,19.85
2017-12-12T01:22:44.850Z,19.82
2017-12-12T01:23:12.907Z,19.87
2017-12-12T01:23:41.032Z,20.02
2017-12-12T01:24:09.121Z,19.84
2017-12-12T01:24:37.060Z,19.85
2017-12-12T01:25:05.121Z,19.9
2017-12-12T01:25:33.155Z,19.87
2017-12-12T01:26:01.250Z,19.84
2017-12-12T01:26:29.402Z,19.94
2017-12-12T01:26:57.538Z,19.93
2017-12-12T01:27:25.582Z,19.92
2017-12-12T01:27:53.720Z,19.87
2017-12-12T01:28:21.745Z,19.89
2017-12-12T01:28:49.907Z,19.87
2017-12-12T01:29:17.975Z,19.87
2017-12-12T01:29:46.122Z,19.92
2017-12-12T01:30:14.342Z,19.84
2017-12-12T01:30:42.292Z,19.84
2017-12-12T01:31:10.629Z,19.82
2017-12-12T01:31:38.686Z,19.79
2017-12-12T01:32:06.698Z,19.82
2017-12-12T01:32:34.758Z,19.77
2017-12-12T01:33:02.715Z,19.7
2017-12-12T01:33:30.833Z,19.78
2017-12-12T01:33:58.856Z,19.79
2017-12-12T01:34:26.930Z,19.74
2017-12-12T01:34:55.068Z,19.74
2017-12-12T01:35:23.209Z,19.78
2017-12-12T01:35:51.378Z,19.74
2017-12-12T01:36:19.520Z,19.7
2017-12-12T01:36:47.618Z,19.74
2017-12-12T01:37:15.666Z,19.7
2017-12-12T01:37:43.689Z,19.74
2017-12-12T01:38:11.712Z,19.63
2017-12-12T01:38:39.739Z,19.78
2017-12-12T01:39:07.849Z,19.7
2017-12-12T01:39:35.919Z,19.7
2017-12-12T01:40:04.080Z,19.7
2017-12-12T01:40:32.021Z,19.81
2017-12-12T01:41:00.287Z,19.74
2017-12-12T01:41:28.211Z,19.75
2017-12-12T01:41:56.236Z,19.7
2017-12-12T01:42:24.345Z,19.78
2017-12-12T01:42:52.502Z,19.71
2017-12-12T01:43:20.658Z,19.63
2017-12-12T01:43:48.819Z,19.72
2017-12-12T01:44:16.866Z,19.7
2017-12-12T01:44:45.040Z,19.7
2017-12-12T01:45:13.076Z,19.67
2017-12-12T01:45:41.102Z,19.67
2017-12-12T01:46:09.329Z,19.7
2017-12-12T01:46:37.434Z,19.63
2017-12-12T01:47:05.503Z,19.62
2017-12-12T01:47:33.586Z,19.62
2017-12-12T01:48:01.600Z,19.64
2017-12-12T01:48:29.634Z,19.74
2017-12-12T01:48:57.712Z,19.78
2017-12-12T01:49:25.642Z,19.6
2017-12-12T01:49:53.706Z,19.63
2017-12-12T01:50:21.871Z,19.71
2017-12-12T01:50:49.928Z,19.75
2017-12-12T01:51:17.943Z,19.66
2017-12-12T01:51:45.963Z,19.78
2017-12-12T01:52:13.998Z,19.75
2017-12-12T01:52:42.148Z,19.72
2017-12-12T01:53:10.099Z,19.74
2017-12-12T01:53:38.015Z,19.74
2017-12-12T01:54:06.074Z,19.77
2017-12-12T01:54:34.128Z,19.72
2017-12-12T01:55:02.155Z,19.74
2017-12-12T01:55:30.096Z,19.7
2017-12-12T01:55:58.298Z,19.66
2017-12-12T01:56:26.364Z,19.67
2017-12-12T01:56:54.510Z,19.67
2017-12-12T01:57:22.701Z,19.75
2017-12-12T01:57:50.710Z,19.64
2017-12-12T01:58:18.727Z,19.56
2017-12-12T01:58:46.913Z,19.55
2017-12-12T01:59:15.098Z,19.56
2017-12-12T01:59:43.241Z,19.55
2017-12-12T02:00:11.375Z,19.55
2017-12-12T02:00:39.443Z,19.53
2017-12-12T02:01:07.669Z,19.63
2017-12-12T02:01:35.781Z,19.56
2017-12-12T02:02:03.961Z,19.52
2017-12-12T02:02:32.063Z,19.53
2017-12-12T02:03:00.120Z,19.49
2017-12-12T02:03:28.295Z,19.49
2017-12-12T02:03:56.288Z,19.42
2017-12-12T02:04:24.433Z,19.44
2017-12-12T02:04:52.357Z,19.45
2017-12-12T02:05:20.429Z,19.45
2017-12-12T02:05:48.559Z,19.44
2017-12-12T02:06:16.676Z,19.44
2017-12-12T02:06:44.617Z,19.47
2017-12-12T02:07:12.677Z,19.52
2017-12-12T02:07:40.767Z,19.42
2017-12-12T02:08:08.924Z,19.49
2017-12-12T02:08:36.953Z,19.41
2017-12-12T02:09:04.975Z,19.49
2017-12-12T02:09:32.986Z,19.41
2017-12-12T02:10:01.135Z,19.48
2017-12-12T02:10:28.969Z,19.38
2017-12-12T02:10:57.128Z,19.42
2017-12-12T02:11:25.153Z,19.48
2017-12-12T02:11:53.219Z,19.38
2017-12-12T02:12:21.315Z,19.45
2017-12-12T02:12:49.369Z,19.37
2017-12-12T02:13:17.528Z,19.41
2017-12-12T02:13:45.683Z,19.41
2017-12-12T02:14:13.656Z,19.42
2017-12-12T02:14:41.776Z,19.42
2017-12-12T02:15:09.716Z,19.39
2017-12-12T02:15:37.769Z,19.48
2017-12-12T02:16:05.804Z,19.41
2017-12-12T02:16:33.820Z,19.44
2017-12-12T02:17:01.831Z,19.39
2017-12-12T02:17:29.970Z,19.41
2017-12-12T02:17:58.104Z,19.38
2017-12-12T02:18:26.167Z,19.38
2017-12-12T02:18:54.461Z,19.32
2017-12-12T02:19:22.509Z,19.42
2017-12-12T02:19:50.641Z,19.32
2017-12-12T02:20:18.814Z,19.3
2017-12-12T02:20:46.947Z,19.32
2017-12-12T02:21:14.905Z,19.42
2017-12-12T02:21:42.961Z,19.42
2017-12-12T02:22:11.030Z,19.35
2017-12-12T02:22:39.155Z,19.41
2017-12-12T02:23:07.291Z,19.39
2017-12-12T02:23:35.459Z,19.37
2017-12-12T02:24:03.553Z,19.35
2017-12-12T02:24:31.717Z,19.37
2017-12-12T02:24:59.756Z,19.41
2017-12-12T02:25:27.794Z,19.27
2017-12-12T02:25:55.763Z,19.34
2017-12-12T02:26:23.969Z,19.34
2017-12-12T02:26:52.012Z,19.29
2017-12-12T02:27:20.168Z,19.29
2017-12-12T02:27:48.303Z,19.2
2017-12-12T02:28:16.473Z,19.23
2017-12-12T02:28:44.505Z,19.22
2017-12-12T02:29:12.615Z,19.27
2017-12-12T02:29:40.790Z,19.2
2017-12-12T02:30:08.853Z,19.27
2017-12-12T02:30:36.873Z,19.26
2017-12-12T02:31:05.031Z,19.17
2017-12-12T02:31:33.085Z,19.17
2017-12-12T02:32:01.139Z,19.24
2017-12-12T02:32:29.189Z,19.19
2017-12-12T02:32:57.268Z,19.26
2017-12-12T02:33:25.428Z,19.16
2017-12-12T02:33:53.619Z,19.24
2017-12-12T02:34:21.786Z,19.17
2017-12-12T02:34:49.727Z,19.17
2017-12-12T02:35:17.756Z,19.27
2017-12-12T02:35:45.630Z,19.2
2017-12-12T02:36:13.708Z,19.23
2017-12-12T02:36:41.787Z,19.19
2017-12-12T02:37:09.837Z,19.32
2017-12-12T02:37:37.953Z,19.26
2017-12-12T02:38:05.988Z,19.34
2017-12-12T02:38:34.106Z,19.24
2017-12-12T02:39:02.251Z,19.27
2017-12-12T02:39:30.367Z,19.32
2017-12-12T02:39:58.515Z,19.22
2017-12-12T02:40:26.641Z,19.3
2017-12-12T02:40:54.756Z,19.19
2017-12-12T02:41:22.912Z,19.17
2017-12-12T02:41:51.197Z,19.19
2017-12-12T02:42:19.258Z,19.08
2017-12-12T02:42:47.397Z,19.08
2017-12-12T02:43:15.534Z,19.09
2017-12-12T02:43:43.667Z,19.12
2017-12-12T02:44:11.620Z,19.09
2017-12-12T02:44:39.762Z,19.11
2017-12-12T02:45:07.929Z,19.12
2017-12-12T02:45:35.863Z,19.17
2017-12-12T02:46:04.060Z,19.11
2017-12-12T02:46:32.193Z,19.07
2017-12-12T02:47:00.432Z,19.01
2017-12-12T02:47:28.337Z,19.09
2017-12-12T02:47:56.371Z,19.12
2017-12-12T02:48:24.421Z,19.01
2017-12-12T02:48:52.568Z,19.09
2017-12-12T02:49:20.612Z,19.11
2017-12-12T02:49:48.439Z,19.15
2017-12-12T02:50:16.559Z,19.07
2017-12-12T02:50:44.582Z,19.08
2017-12-12T02:51:12.593Z,19.11
2017-12-12T02:51:40.631Z,19.12
2017-12-12T02:52:08.770Z,19.05
2017-12-12T02:52:36.842Z,19.05
2017-12-12T02:53:04.954Z,19.07
2017-12-12T02:53:33.003Z,19.09
2017-12-12T02:54:01.131Z,19.04
2017-12-12T02:54:29.303Z,18.94
2017-12-12T02:54:57.343Z,18.96
2017-12-12T02:55:25.197Z,18.96
2017-12-12T02:55:53.238Z,19
2017-12-12T02:56:21.432Z,18.91
2017-12-12T02:56:49.536Z,18.86
2017-12-12T02:57:17.671Z,18.81
2017-12-12T02:57:45.620Z,18.88
2017-12-12T02:58:13.677Z,18.76
2017-12-12T02:58:41.746Z,18.68
2017-12-12T02:59:09.860Z,18.73
2017-12-12T02:59:37.928Z,18.71
2017-12-12T03:00:05.954Z,18.74
2017-12-12T03:00:33.979Z,18.74
2017-12-12T03:01:01.926Z,18.71
2017-12-12T03:01:29.976Z,18.71
2017-12-12T03:01:58.249Z,18.66
2017-12-12T03:02:26.277Z,18.63
2017-12-12T03:02:54.422Z,18.67
2017-12-12T03:03:22.528Z,18.64
2017-12-12T03:03:50.674Z,18.63
2017-12-12T03:04:18.809Z,18.66
2017-12-12T03:04:46.958Z,18.7
2017-12-12T03:05:15.071Z,18.7
2017-12-12T03:05:43.182Z,18.7
2017-12-12T03:06:11.321Z,18.7
2017-12-12T03:06:39.516Z,18.66
2017-12-12T03:07:07.679Z,18.76
2017-12-12T03:07:35.813Z,18.71
2017-12-12T03:08:03.914Z,18.7
2017-12-12T03:08:32.064Z,18.64
2017-12-12T03:09:00.185Z,18.64
2017-12-12T03:09:28.348Z,18.66
2017-12-12T03:09:56.532Z,18.61
2017-12-12T03:10:24.512Z,18.61
2017-12-12T03:10:52.530Z,18.53
2017-12-12T03:11:20.564Z,18.57
2017-12-12T03:11:48.719Z,18.49
2017-12-12T03:12:17.092Z,18.43
2017-12-12T03:12:45.053Z,18.46
2017-12-12T03:13:13.072Z,18.37
2017-12-12T03:13:40.992Z,18.41
2017-12-12T03:14:09.105Z,18.28
2017-12-12T03:14:37.150Z,18.36
2017-12-12T03:15:05.193Z,18.26
2017-12-12T03:15:33.353Z,18.23
2017-12-12T03:16:01.515Z,18.23
2017-12-12T03:16:29.592Z,18.24
2017-12-12T03:16:57.738Z,18.16
2017-12-12T03:17:25.868Z,18.18
2017-12-12T03:17:54.023Z,18.09
2017-12-12T03:18:21.977Z,18.12
2017-12-12T03:18:50.023Z,17.98
2017-12-12T03:19:18.158Z,18
2017-12-12T03:19:46.228Z,18
2017-12-12T03:20:14.172Z,17.88
2017-12-12T03:20:42.203Z,18
2017-12-12T03:21:10.259Z,17.97
2017-12-12T03:21:38.424Z,17.97
2017-12-12T03:22:06.436Z,17.91
2017-12-12T03:22:34.585Z,17.91
2017-12-12T03:23:02.745Z,17.9
2017-12-12T03:23:30.875Z,17.91
2017-12-12T03:23:59.027Z,17.8
2017-12-12T03:24:27.128Z,17.79
2017-12-12T03:24:55.193Z,17.78
2017-12-12T03:25:23.313Z,17.72
2017-12-12T03:25:51.342Z,17.75
2017-12-12T03:26:19.493Z,17.72
2017-12-12T03:26:47.688Z,17.6
2017-12-12T03:27:15.702Z,17.73
2017-12-12T03:27:43.839Z,17.63
2017-12-12T03:28:11.968Z,17.59
2017-12-12T03:28:40.096Z,17.6
2017-12-12T03:29:08.025Z,17.59
2017-12-12T03:29:36.173Z,17.59
2017-12-12T03:30:04.194Z,17.54
2017-12-12T03:30:32.293Z,17.57
2017-12-12T03:31:00.429Z,17.6
2017-12-12T03:31:28.471Z,17.66
2017-12-12T03:31:56.631Z,17.57
2017-12-12T03:32:24.858Z,17.65
2017-12-12T03:32:52.891Z,17.66
2017-12-12T03:33:21.004Z,17.6
2017-12-12T03:33:49.163Z,17.69
2017-12-12T03:34:17.307Z,17.57
2017-12-12T03:34:45.362Z,17.54
2017-12-12T03:35:13.501Z,17.59
2017-12-12T03:35:41.644Z,17.6
2017-12-12T03:36:09.793Z,17.66
2017-12-12T03:36:38.018Z,17.73
2017-12-12T03:37:05.967Z,17.78
2017-12-12T03:37:34.087Z,17.76
2017-12-12T03:38:02.167Z,17.76
2017-12-12T03:38:30.205Z,17.75
2017-12-12T03:38:58.145Z,17.82
2017-12-12T03:39:26.298Z,17.79
2017-12-12T03:39:54.350Z,17.78
2017-12-12T03:40:22.382Z,17.84
2017-12-12T03:40:50.453Z,17.78
2017-12-12T03:41:18.527Z,17.86
2017-12-12T03:41:46.672Z,17.82
2017-12-12T03:42:15.089Z,17.88
2017-12-12T03:42:43.243Z,17.86
2017-12-12T03:43:11.347Z,17.93
2017-12-12T03:43:39.484Z,17.9
2017-12-12T03:44:07.669Z,17.91
2017-12-12T03:44:35.747Z,17.91
2017-12-12T03:45:03.930Z,17.94
2017-12-12T03:45:32.055Z,17.95
2017-12-12T03:46:00.178Z,17.95
2017-12-12T03:46:28.205Z,17.88
2017-12-12T03:46:56.304Z,17.9
2017-12-12T03:47:24.523Z,18.06
2017-12-12T03:47:52.671Z,18
2017-12-12T03:48:20.717Z,17.98
2017-12-12T03:48:48.767Z,18
2017-12-12T03:49:16.891Z,18.02
2017-12-12T03:49:45.045Z,18.11
2017-12-12T03:50:13.173Z,18.11
2017-12-12T03:50:41.202Z,18.12
2017-12-12T03:51:09.246Z,18.08
2017-12-12T03:51:37.390Z,18.18
2017-12-12T03:52:05.436Z,18.23
2017-12-12T03:52:33.586Z,18.18
2017-12-12T03:53:01.731Z,18.16
2017-12-12T03:53:29.863Z,18.18
2017-12-12T03:53:58.021Z,18.19
2017-12-12T03:54:26.055Z,18.34
2017-12-12T03:54:54.220Z,18.42
2017-12-12T03:55:22.348Z,18.39
2017-12-12T03:55:50.415Z,18.28
2017-12-12T03:56:18.473Z,18.3
2017-12-12T03:56:46.592Z,18.41
2017-12-12T03:57:14.574Z,18.45
2017-12-12T03:57:42.713Z,18.28
2017-12-12T03:58:10.814Z,18.31
2017-12-12T03:58:38.936Z,18.37
2017-12-12T03:59:07.054Z,18.41
2017-12-12T03:59:35.059Z,18.43
2017-12-12T04:00:03.102Z,18.39
2017-12-12T04:00:31.154Z,18.43
2017-12-12T04:00:59.258Z,18.46
2017-12-12T04:01:27.263Z,18.48
2017-12-12T04:01:55.426Z,18.49
2017-12-12T04:02:23.494Z,18.52
2017-12-12T04:02:51.708Z,18.51
2017-12-12T04:03:19.842Z,18.52
2017-12-12T04:03:48.017Z,18.55
2017-12-12T04:04:16.101Z,18.55
2017-12-12T04:04:44.118Z,18.57
2017-12-12T04:05:12.100Z,18.6
2017-12-12T04:05:40.145Z,18.53
2017-12-12T04:06:08.182Z,18.67
2017-12-12T04:06:36.187Z,18.66
2017-12-12T04:07:04.142Z,18.67
2017-12-12T04:07:32.160Z,18.61
2017-12-12T04:08:00.319Z,18.64
2017-12-12T04:08:28.495Z,18.64
2017-12-12T04:08:56.513Z,18.66
2017-12-12T04:09:24.708Z,18.63
2017-12-12T04:09:52.861Z,18.66
2017-12-12T04:10:21.020Z,18.67
2017-12-12T04:10:49.193Z,18.63
2017-12-12T04:11:17.325Z,18.67
2017-12-12T04:11:45.504Z,18.81
2017-12-12T04:12:13.630Z,18.64
2017-12-12T04:12:41.772Z,18.78
2017-12-12T04:13:09.724Z,18.7
2017-12-12T04:13:37.858Z,18.7
2017-12-12T04:14:06.263Z,18.67
2017-12-12T04:14:34.318Z,18.71
2017-12-12T04:15:02.279Z,18.88
2017-12-12T04:15:30.419Z,18.81
2017-12-12T04:15:58.451Z,18.83
2017-12-12T04:16:26.506Z,18.85
2017-12-12T04:16:54.734Z,18.89
2017-12-12T04:17:22.755Z,18.85
2017-12-12T04:17:50.897Z,18.89
2017-12-12T04:18:19.010Z,18.91
2017-12-12T04:18:47.150Z,18.97
2017-12-12T04:19:15.489Z,18.89
2017-12-12T04:19:43.522Z,18.89
2017-12-12T04:20:11.652Z,18.96
2017-12-12T04:20:39.763Z,18.96
2017-12-12T04:21:07.933Z,19
2017-12-12T04:21:35.988Z,18.96
2017-12-12T04:22:04.138Z,19.01
2017-12-12T04:22:32.064Z,18.92
2017-12-12T04:23:00.217Z,18.98
2017-12-12T04:23:28.278Z,18.96
2017-12-12T04:23:56.424Z,18.98
2017-12-12T04:24:24.562Z,19.01
2017-12-12T04:24:52.503Z,19.04
2017-12-12T04:25:20.537Z,18.98
2017-12-12T04:25:48.638Z,19.05
2017-12-12T04:26:16.602Z,18.92
2017-12-12T04:26:44.719Z,18.98
2017-12-12T04:27:12.895Z,19.01
2017-12-12T04:27:41.054Z,18.92
2017-12-12T04:28:09.216Z,18.97
2017-12-12T04:28:37.299Z,19.01
2017-12-12T04:29:05.211Z,18.96
2017-12-12T04:29:33.337Z,18.96
2017-12-12T04:30:01.471Z,18.86
2017-12-12T04:30:29.598Z,18.91
2017-12-12T04:30:57.722Z,18.91
2017-12-12T04:31:25.687Z,18.89
2017-12-12T04:31:53.757Z,18.86
2017-12-12T04:32:21.789Z,18.88
2017-12-12T04:32:49.902Z,18.88
2017-12-12T04:33:18.019Z,18.83
2017-12-12T04:33:46.145Z,18.86
2017-12-12T04:34:14.069Z,18.96
2017-12-12T04:34:42.013Z,18.83
2017-12-12T04:35:10.112Z,18.92
2017-12-12T04:35:38.140Z,18.88
2017-12-12T04:36:06.277Z,18.89
2017-12-12T04:36:34.312Z,18.89
2017-12-12T04:37:02.472Z,18.92
2017-12-12T04:37:30.654Z,18.91
2017-12-12T04:37:58.566Z,18.97
2017-12-12T04:38:26.578Z,18.92
2017-12-12T04:38:54.696Z,18.97
2017-12-12T04:39:22.831Z,18.94
2017-12-12T04:39:50.979Z,18.96
2017-12-12T04:40:18.947Z,18.97
2017-12-12T04:40:47.044Z,18.97
2017-12-12T04:41:15.158Z,18.97
2017-12-12T04:41:43.313Z,18.92
2017-12-12T04:42:11.510Z,18.91
2017-12-12T04:42:39.628Z,18.85
2017-12-12T04:43:08.020Z,18.92
2017-12-12T04:43:36.017Z,18.98
2017-12-12T04:44:04.000Z,18.96
2017-12-12T04:44:32.031Z,18.97
2017-12-12T04:45:00.193Z,18.96
2017-12-12T04:45:28.356Z,19.01
2017-12-12T04:45:56.392Z,18.91
2017-12-12T04:46:24.486Z,18.89
2017-12-12T04:46:52.382Z,18.88
2017-12-12T04:47:20.436Z,18.88
2017-12-12T04:47:48.570Z,18.91
2017-12-12T04:48:16.644Z,18.86
2017-12-12T04:48:44.686Z,18.83
2017-12-12T04:49:12.737Z,18.82
2017-12-12T04:49:40.739Z,18.82
2017-12-12T04:50:08.883Z,18.82
2017-12-12T04:50:36.891Z,18.83
2017-12-12T04:51:05.047Z,18.81
2017-12-12T04:51:33.219Z,18.91
2017-12-12T04:52:01.344Z,18.81
2017-12-12T04:52:29.377Z,18.85
2017-12-12T04:52:57.587Z,18.86
2017-12-12T04:53:25.591Z,18.89
2017-12-12T04:53:53.713Z,18.89
2017-12-12T04:54:21.773Z,18.96
2017-12-12T04:54:49.934Z,18.96
2017-12-12T04:55:17.995Z,18.96
2017-12-12T04:55:46.131Z,18.97
2017-12-12T04:56:14.148Z,19.01
2017-12-12T04:56:42.308Z,19.11
2017-12-12T04:57:10.349Z,19.04
2017-12-12T04:57:38.322Z,19.01
2017-12-12T04:58:06.484Z,19.05
2017-12-12T04:58:34.485Z,19.05
2017-12-12T04:59:02.501Z,19.15
2017-12-12T04:59:30.616Z,19.05
2017-12-12T04:59:58.657Z,19.01
2017-12-12T05:00:26.808Z,19.09
2017-12-12T05:00:54.940Z,19.01
2017-12-12T05:01:23.007Z,19.07
2017-12-12T05:01:51.154Z,19.12
2017-12-12T05:02:19.205Z,19.09
2017-12-12T05:02:47.334Z,19.08
2017-12-12T05:03:15.563Z,19.15
2017-12-12T05:03:43.693Z,19.11
2017-12-12T05:04:11.741Z,19.08
2017-12-12T05:04:39.846Z,19.09
2017-12-12T05:05:07.948Z,19.07
2017-12-12T05:05:36.082Z,19.08
2017-12-12T05:06:04.243Z,19.16
2017-12-12T05:06:32.377Z,19.2
2017-12-12T05:07:00.538Z,19.17
2017-12-12T05:07:28.586Z,19.19
2017-12-12T05:07:56.765Z,19.19
2017-12-12T05:08:24.912Z,19.17
2017-12-12T05:08:53.019Z,19.19
2017-12-12T05:09:21.099Z,19.26
2017-12-12T05:09:49.230Z,19.22
2017-12-12T05:10:17.391Z,19.24
2017-12-12T05:10:45.530Z,19.24
2017-12-12T05:11:13.546Z,19.34
2017-12-12T05:11:41.627Z,19.32
2017-12-12T05:12:09.659Z,19.29
2017-12-12T05:12:37.794Z,19.29
2017-12-12T05:13:05.952Z,19.3
2017-12-12T05:13:34.152Z,19.38
2017-12-12T05:14:02.177Z,19.34
2017-12-12T05:14:30.433Z,19.35
2017-12-12T05:14:58.618Z,19.34
2017-12-12T05:15:26.898Z,19.32
2017-12-12T05:15:54.953Z,19.26
2017-12-12T05:16:23.117Z,19.26
2017-12-12T05:16:51.246Z,19.3
2017-12-12T05:17:19.362Z,19.24
2017-12-12T05:17:47.378Z,19.22
2017-12-12T05:18:15.308Z,19.23
2017-12-12T05:18:43.677Z,19.24
2017-12-12T05:19:11.837Z,19.27
2017-12-12T05:19:39.956Z,19.3
2017-12-12T05:20:08.007Z,19.3
2017-12-12T05:20:36.052Z,19.23
2017-12-12T05:21:04.187Z,19.17
2017-12-12T05:21:32.322Z,19.26
2017-12-12T05:22:00.374Z,19.26
2017-12-12T05:22:28.520Z,19.27
2017-12-12T05:22:56.642Z,19.32
2017-12-12T05:23:24.796Z,19.32
2017-12-12T05:23:52.972Z,19.3
2017-12-12T05:24:20.883Z,19.35
2017-12-12T05:24:49.028Z,19.37
2017-12-12T05:25:16.938Z,19.41
2017-12-12T05:25:44.966Z,19.37
2017-12-12T05:26:13.082Z,19.39
2017-12-12T05:26:41.149Z,19.41
2017-12-12T05:27:09.323Z,19.38
2017-12-12T05:27:37.643Z,19.34
2017-12-12T05:28:05.762Z,19.34
2017-12-12T05:28:33.890Z,19.34
2017-12-12T05:29:02.035Z,19.38
2017-12-12T05:29:30.060Z,19.37
2017-12-12T05:29:58.091Z,19.35
2017-12-12T05:30:26.269Z,19.3
2017-12-12T05:30:54.309Z,19.35
2017-12-12T05:31:22.336Z,19.24
2017-12-12T05:31:50.446Z,19.37
2017-12-12T05:32:18.490Z,19.27
2017-12-12T05:32:46.540Z,19.29
2017-12-12T05:33:14.672Z,19.3
2017-12-12T05:33:42.819Z,19.24
2017-12-12T05:34:10.858Z,19.29
2017-12-12T05:34:38.882Z,19.34
2017-12-12T05:35:06.949Z,19.2
2017-12-12T05:35:34.995Z,19.24
2017-12-12T05:36:03.174Z,19.27
2017-12-12T05:36:31.191Z,19.2
2017-12-12T05:36:59.323Z,19.15
2017-12-12T05:37:27.479Z,19.26
2017-12-12T05:37:55.534Z,19.17
2017-12-12T05:38:23.693Z,19.27
2017-12-12T05:38:51.841Z,19.22
2017-12-12T05:39:20.007Z,19.23
2017-12-12T05:39:48.176Z,19.23
2017-12-12T05:40:16.304Z,19.23
2017-12-12T05:40:44.429Z,19.16
2017-12-12T05:41:12.470Z,19.24
2017-12-12T05:41:40.538Z,19.23
2017-12-12T05:42:08.673Z,19.19
2017-12-12T05:42:36.854Z,19.23
2017-12-12T05:43:05.015Z,19.2
2017-12-12T05:43:33.047Z,19.19
2017-12-12T05:44:01.203Z,19.24
2017-12-12T05:44:29.239Z,19.24
2017-12-12T05:44:57.383Z,19.22
2017-12-12T05:45:25.316Z,19.23
2017-12-12T05:45:53.358Z,19.24
2017-12-12T05:46:21.533Z,19.26
2017-12-12T05:46:49.584Z,19.29
2017-12-12T05:47:17.743Z,19.17
2017-12-12T05:47:45.748Z,19.22
2017-12-12T05:48:13.679Z,19.23
2017-12-12T05:48:41.915Z,19.19
2017-12-12T05:49:10.036Z,19.19
2017-12-12T05:49:38.076Z,19.2
2017-12-12T05:50:06.126Z,19.12
2017-12-12T05:50:34.042Z,19.17
2017-12-12T05:51:02.087Z,19.17
2017-12-12T05:51:30.053Z,19.26
2017-12-12T05:51:58.102Z,19.23
2017-12-12T05:52:26.117Z,19.24
2017-12-12T05:52:54.246Z,19.3
2017-12-12T05:53:22.338Z,19.23
2017-12-12T05:53:50.484Z,19.32
2017-12-12T05:54:18.642Z,19.35
2017-12-12T05:54:46.683Z,19.34
2017-12-12T05:55:14.738Z,19.37
2017-12-12T05:55:42.779Z,19.42
2017-12-12T05:56:10.833Z,19.38
2017-12-12T05:56:38.770Z,19.38
2017-12-12T05:57:06.814Z,19.37
2017-12-12T05:57:34.882Z,19.34
2017-12-12T05:58:02.911Z,19.27
2017-12-12T05:58:30.930Z,19.29
2017-12-12T05:58:59.036Z,19.26
2017-12-12T05:59:27.032Z,19.24
2017-12-12T05:59:55.159Z,19.24
2017-12-12T06:00:23.232Z,19.32
2017-12-12T06:00:51.286Z,19.29
2017-12-12T06:01:19.323Z,19.26
2017-12-12T06:01:48.098Z,19.27
2017-12-12T06:02:16.146Z,19.27
2017-12-12T06:02:44.316Z,19.26
2017-12-12T06:03:12.341Z,19.19